Time;durP1;ratioP1;P1;durP2;ratioP2;P2;SDS_P1;SDS_P2;PMS_P1;PMS_P2;Temp;Humidity;BMP_temperature;BMP_pressure;BME280_temperature;BME280_humidity;BME280_pressure;Samples;Min_cycle;Max_cycle;Signal;HPM_P1;HPM_P2
2022/04/12 00:02:12;;;;;;;5.55;3.25;;;;;;;11.10;44.64;99937.84;10233605;28;20043;-64
2022/04/12 00:07:15;;;;;;;3.15;2.38;;;;;;;11.04;44.35;99930.41;10233825;28;20059;-64
2022/04/12 00:12:17;;;;;;;4.47;3.33;;;;;;;11.04;44.38;99936.56;10236816;28;20110;-63
2022/04/12 00:22:40;;;;;;;3.72;2.78;;;;;;;10.96;45.09;99918.59;10229769;28;20540;-63
2022/04/12 00:27:41;;;;;;;5.47;2.50;;;;;;;10.82;44.95;99902.97;10233996;28;20057;-62
2022/04/12 00:32:43;;;;;;;5.18;3.20;;;;;;;10.92;45.03;99925.16;10228828;28;20571;-63
2022/04/12 00:37:45;;;;;;;3.65;3.17;;;;;;;10.89;44.99;99933.41;10231009;28;20232;-63
2022/04/12 00:42:48;;;;;;;4.07;3.58;;;;;;;10.85;44.97;99925.84;10229783;28;20141;-64
2022/04/12 00:47:49;;;;;;;4.95;3.30;;;;;;;10.89;45.48;99916.59;10232778;28;20050;-63
2022/04/12 00:52:54;;;;;;;3.42;3.03;;;;;;;10.91;45.26;99926.16;10231006;28;20069;-63
2022/04/12 00:57:56;;;;;;;;;;;;;;;10.90;45.39;99929.78;10235666;28;20531;-63
2022/04/12 01:02:57;;;;;;;4.00;3.53;;;;;;;10.82;45.65;99910.97;10240672;28;20523;-63
2022/04/12 01:08:00;;;;;;;4.47;3.40;;;;;;;10.83;45.76;99919.81;10240170;28;20062;-63
2022/04/12 01:13:02;;;;;;;4.68;3.30;;;;;;;10.72;45.89;99905.59;10238095;28;20142;-64
2022/04/12 01:18:03;;;;;;;3.28;2.95;;;;;;;10.63;46.31;99895.75;10236943;28;20061;-63
2022/04/12 01:23:27;;;;;;;4.25;2.78;;;;;;;10.70;46.46;99912.03;10237008;28;20055;-64
2022/04/12 01:28:29;;;;;;;4.27;3.20;;;;;;;10.42;46.45;99879.81;10240115;28;20054;-61
2022/04/12 01:33:30;;;;;;;3.60;3.20;;;;;;;10.63;46.42;99910.88;10233644;28;20133;-64
2022/04/12 01:38:32;;;;;;;3.95;3.38;;;;;;;10.52;46.24;99901.97;10238706;28;20057;-64
2022/04/12 01:43:34;;;;;;;3.85;3.42;;;;;;;10.62;46.44;99926.00;10240694;28;20150;-63
2022/04/12 01:48:35;;;;;;;6.38;3.47;;;;;;;10.56;46.72;99922.03;10237688;28;20047;-62
2022/04/12 01:53:37;;;;;;;3.65;3.03;;;;;;;10.43;46.94;99897.47;10234693;28;20125;-62
2022/04/12 01:58:38;;;;;;;4.18;2.95;;;;;;;10.40;47.15;99897.72;10235095;28;20656;-62
2022/04/12 02:03:40;;;;;;;4.10;3.17;;;;;;;10.45;47.08;99911.50;10239535;28;20053;-64
2022/04/12 02:08:41;;;;;;;3.65;3.35;;;;;;;10.42;47.35;99903.78;10242550;28;20104;-62
2022/04/12 02:13:42;;;;;;;5.28;3.22;;;;;;;10.35;47.65;99903.44;10236659;28;20147;-62
2022/04/12 02:18:44;;;;;;;6.03;3.88;;;;;;;10.22;47.96;99881.47;10234407;28;20604;-62
2022/04/12 02:23:45;;;;;;;5.85;3.45;;;;;;;10.32;47.88;99903.66;10230997;28;20109;-62
2022/04/12 02:28:46;;;;;;;5.00;3.45;;;;;;;10.29;48.18;99892.47;10230983;28;20126;-61
2022/04/12 02:33:48;;;;;;;4.28;3.00;;;;;;;10.25;48.07;99892.72;10236150;28;20058;-60
2022/04/12 02:38:49;;;;;;;4.32;3.55;;;;;;;10.20;48.43;99900.22;10232803;28;20091;-62
2022/04/12 02:43:51;;;;;;;4.43;3.42;;;;;;;10.17;48.27;99900.50;10234635;28;20703;-62
2022/04/12 02:48:52;;;;;;;4.47;4.05;;;;;;;10.11;48.45;99900.19;10247626;28;20783;-62
2022/04/12 02:53:53;;;;;;;4.25;3.80;;;;;;;10.09;48.87;99901.13;10235611;28;20666;-62
2022/04/12 02:58:55;;;;;;;3.90;3.55;;;;;;;9.98;48.73;99887.06;10231075;28;20055;-63
2022/04/12 03:03:56;;;;;;;4.40;4.00;;;;;;;10.00;48.66;99906.41;10233590;28;20049;-63
2022/04/12 03:08:58;;;;;;;3.97;3.42;;;;;;;9.87;49.03;99875.50;10233158;28;20051;-65
2022/04/12 03:13:59;;;;;;;3.75;3.40;;;;;;;9.92;49.15;99869.78;10241292;28;20077;-62
2022/04/12 03:19:00;;;;;;;4.43;3.78;;;;;;;9.98;49.33;99874.59;10234164;28;20058;-62
2022/04/12 03:24:02;;;;;;;6.32;3.58;;;;;;;9.96;49.42;99883.69;10228694;28;20051;-63
2022/04/12 03:29:03;;;;;;;4.35;3.78;;;;;;;9.94;49.56;99880.28;10231024;28;20055;-62
2022/04/12 03:34:04;;;;;;;4.78;4.13;;;;;;;9.87;49.44;99879.97;10237171;28;20058;-61
2022/04/12 03:39:10;;;;;;;5.03;4.53;;;;;;;9.84;49.45;99872.25;10234016;28;20065;-61
2022/04/12 03:44:12;;;;;;;4.93;4.10;;;;;;;9.84;50.26;99883.72;10232175;28;20078;-63
2022/04/12 03:49:20;;;;;;;4.65;3.85;;;;;;;9.66;50.21;99861.34;10233784;28;20059;-63
2022/04/12 03:54:21;;;;;;;5.22;4.47;;;;;;;9.77;49.90;99879.88;10230540;28;20126;-62
2022/04/12 03:59:23;;;;;;;5.68;4.43;;;;;;;9.62;50.32;99868.72;10231590;28;20054;-66
2022/04/12 04:04:25;;;;;;;7.32;4.40;;;;;;;9.71;50.35;99883.91;10234164;28;20055;-63
2022/04/12 04:09:26;;;;;;;5.35;4.15;;;;;;;9.69;50.34;99869.06;10234891;28;20704;-62
2022/04/12 04:14:28;;;;;;;5.35;4.07;;;;;;;9.73;50.47;99876.66;10230165;28;20047;-63
2022/04/12 04:19:29;;;;;;;4.95;4.18;;;;;;;9.58;50.77;99859.34;10233650;28;20138;-64
2022/04/12 04:24:31;;;;;;;5.18;4.68;;;;;;;9.67;50.86;99879.00;10231094;28;20105;-64
2022/04/12 04:29:35;;;;;;;7.03;4.80;;;;;;;9.64;51.01;99893.38;10228710;28;20050;-62
2022/04/12 04:34:37;;;;;;;5.45;4.85;;;;;;;9.59;50.95;99892.88;10238171;28;20058;-63
2022/04/12 04:39:38;;;;;;;5.90;4.53;;;;;;;9.55;50.96;99884.34;10239423;28;20541;-62
2022/04/12 04:44:39;;;;;;;6.63;4.82;;;;;;;9.33;51.03;99853.34;10240216;28;20043;-63
2022/04/12 04:49:41;;;;;;;5.15;4.43;;;;;;;9.51;51.08;99890.03;10247246;28;21275;-64
2022/04/12 04:54:42;;;;;;;5.95;5.22;;;;;;;9.48;51.07;99893.78;10232832;28;20055;-64
2022/04/12 04:59:44;;;;;;;6.47;5.32;;;;;;;9.53;51.43;99901.38;10212778;28;20059;-64
2022/04/12 05:04:45;;;;;;;6.53;4.78;;;;;;;9.47;51.43;99894.75;10223183;28;20615;-62
2022/04/12 05:09:46;;;;;;;6.90;5.00;;;;;;;9.42;51.27;99888.13;10218552;28;20062;-64
2022/04/12 05:14:48;;;;;;;6.60;5.50;;;;;;;9.46;51.34;99895.72;10221818;28;20057;-63
2022/04/12 05:19:49;;;;;;;6.93;5.30;;;;;;;9.49;50.91;99903.44;10219299;28;20043;-63
2022/04/12 05:24:51;;;;;;;6.47;5.45;;;;;;;9.62;51.35;99921.03;10221017;28;20153;-63
2022/04/12 05:29:53;;;;;;;6.30;5.55;;;;;;;9.64;51.13;99919.94;10222962;28;20052;-64
2022/04/12 05:34:54;;;;;;;6.15;5.32;;;;;;;9.57;50.97;99912.59;10229213;28;20134;-65
2022/04/12 05:39:56;;;;;;;6.50;5.18;;;;;;;9.64;50.76;99913.78;10221711;28;21098;-65
2022/04/12 05:44:57;;;;;;;5.90;4.78;;;;;;;9.54;50.64;99909.22;10218541;28;20058;-64
2022/04/12 05:49:58;;;;;;;6.45;5.32;;;;;;;9.66;50.56;99914.50;10219197;28;20722;-62
2022/04/12 05:55:00;;;;;;;8.27;5.93;;;;;;;9.70;50.93;99918.59;10225026;28;20055;-61
2022/04/12 06:00:02;;;;;;;6.80;6.10;;;;;;;9.75;50.61;99921.72;10224538;28;20085;-61
2022/04/12 06:05:05;;;;;;;7.00;6.10;;;;;;;9.82;50.81;99912.28;10224344;28;20059;-59
2022/04/12 06:10:10;;;;;;;7.47;5.80;;;;;;;10.05;50.28;99904.19;10218113;28;20051;-62
2022/04/12 06:15:12;;;;;;;5.97;5.32;;;;;;;10.32;49.90;99910.81;10226850;28;20065;-63
2022/04/12 06:20:16;;;;;;;7.15;5.45;;;;;;;10.54;49.43;99924.00;10219904;28;20051;-62
2022/04/12 06:25:20;;;;;;;7.45;5.63;;;;;;;10.78;48.71;99925.53;10222621;28;20051;-63
2022/04/12 06:30:30;;;;;;;6.72;5.95;;;;;;;10.98;47.78;99928.28;10220522;28;20528;-60
2022/04/12 06:35:31;;;;;;;7.78;6.18;;;;;;;11.23;47.81;99929.59;10218529;28;20058;-59
2022/04/12 06:40:35;;;;;;;8.13;5.80;;;;;;;11.43;46.99;99922.53;10236038;28;20073;-61
2022/04/12 06:45:37;;;;;;;9.93;5.85;;;;;;;11.61;46.14;99936.84;10221551;28;20042;-62
2022/04/12 06:50:38;;;;;;;11.23;5.78;;;;;;;11.48;46.14;99929.13;10220404;28;20537;-62
2022/04/12 06:55:39;;;;;;;20.48;7.57;;;;;;;11.42;46.20;99950.16;10217549;28;20130;-62
2022/04/12 07:00:41;;;;;;;6.93;5.70;;;;;;;11.26;46.66;99948.84;10217794;28;20054;-64
2022/04/12 07:05:42;;;;;;;8.55;6.15;;;;;;;11.24;46.98;99947.28;10219839;28;20047;-61
2022/04/12 07:10:45;;;;;;;11.85;6.55;;;;;;;11.52;46.07;99944.84;10218441;28;20254;-61
2022/04/12 07:15:46;;;;;;;9.40;5.85;;;;;;;11.78;46.38;99947.81;10219935;28;20051;-61
2022/04/12 07:20:48;;;;;;;9.90;6.57;;;;;;;12.09;46.05;99943.25;10215213;28;20051;-60
2022/04/12 07:25:49;;;;;;;8.70;6.38;;;;;;;12.43;45.70;99940.13;10224353;28;20050;-62
2022/04/12 07:30:51;;;;;;;10.07;5.72;;;;;;;12.75;44.63;99938.09;10218958;28;20059;-62
2022/04/12 07:35:58;;;;;;;8.13;6.00;;;;;;;12.88;44.03;99943.91;10220109;28;20073;-62
2022/04/12 07:41:00;;;;;;;8.77;6.10;;;;;;;13.07;43.02;99935.81;10221755;28;20514;-63
2022/04/12 07:46:01;;;;;;;7.00;5.63;;;;;;;13.35;42.31;99937.72;10224841;28;20061;-63
2022/04/12 07:51:21;;;;;;;8.30;5.50;;;;;;;13.64;41.71;99940.19;10224890;28;20688;-62
2022/04/12 07:56:22;;;;;;;6.90;5.13;;;;;;;13.86;41.15;99935.41;10225814;28;20047;-63
2022/04/12 08:01:23;;;;;;;9.48;6.00;;;;;;;14.03;40.96;99939.06;10222064;28;20047;-62
2022/04/12 08:06:25;;;;;;;7.90;6.50;;;;;;;14.25;39.67;99933.25;10232552;28;20110;-64
2022/04/12 08:11:27;;;;;;;6.57;5.15;;;;;;;14.56;40.55;99939.97;10230807;28;20993;-63
2022/04/12 08:16:28;;;;;;;6.15;5.47;;;;;;;14.79;39.71;99909.03;10229541;28;20065;-63
2022/04/12 08:21:38;;;;;;;6.57;5.00;;;;;;;15.33;39.80;99934.75;10226218;28;20055;-62
2022/04/12 08:26:39;;;;;;;7.18;5.10;;;;;;;15.65;37.97;99917.88;10228059;28;20055;-62
2022/04/12 08:31:41;;;;;;;6.53;5.18;;;;;;;15.61;38.26;99919.19;10226068;28;20046;-61
2022/04/12 08:36:43;;;;;;;7.95;5.32;;;;;;;15.88;38.12;99910.06;10226964;28;20059;-65
2022/04/12 08:41:44;;;;;;;6.38;4.75;;;;;;;16.23;37.13;99913.44;10225709;28;20055;-63
2022/04/12 08:46:46;;;;;;;6.55;4.85;;;;;;;16.51;36.85;99915.72;10229529;28;20059;-62
2022/04/12 08:51:49;;;;;;;7.05;5.30;;;;;;;16.83;36.75;99915.84;10224876;28;20051;-65
2022/04/12 08:56:52;;;;;;;6.22;5.10;;;;;;;17.00;35.47;99904.06;10222833;28;20115;-64
2022/04/12 09:01:54;;;;;;;9.60;4.72;;;;;;;17.27;34.98;99889.31;10224626;28;20074;-63
2022/04/12 09:06:58;;;;;;;7.72;5.30;;;;;;;17.53;34.55;99885.47;10233122;28;20054;-62
2022/04/12 09:12:09;;;;;;;7.88;5.15;;;;;;;17.63;34.69;99904.91;10230471;28;20143;-62
2022/04/12 09:17:15;;;;;;;9.57;4.75;;;;;;;18.19;33.74;99896.63;10236038;28;20571;-61
2022/04/12 09:22:22;;;;;;;5.85;4.10;;;;;;;18.82;33.29;99898.19;10228114;28;20051;-63
2022/04/12 09:27:30;;;;;;;6.82;4.40;;;;;;;19.38;32.32;99882.34;10227033;28;20174;-64
2022/04/12 09:32:37;;;;;;;7.97;4.85;;;;;;;19.66;31.31;99884.28;10231918;28;20057;-62
2022/04/12 09:37:43;;;;;;;7.40;4.70;;;;;;;19.95;30.86;99880.66;10226458;28;20066;-62
2022/04/12 09:42:54;;;;;;;6.75;4.38;;;;;;;19.97;30.96;99864.25;10221175;28;20053;-61
2022/04/12 09:47:58;;;;;;;9.70;4.68;;;;;;;20.48;30.24;99847.81;10225489;28;20186;-61
2022/04/12 09:53:19;;;;;;;6.43;5.00;;;;;;;20.87;29.53;99842.00;10224831;28;20054;-62
2022/04/12 09:58:21;;;;;;;5.45;3.83;;;;;;;21.59;28.39;99818.09;10221474;28;20709;-62
2022/04/12 10:03:25;;;;;;;5.40;3.55;;;;;;;22.13;27.41;99819.78;10217339;28;20058;-62
2022/04/12 10:08:29;;;;;;;5.82;3.15;;;;;;;22.77;26.80;99825.50;10222613;28;20054;-63
2022/04/12 10:13:31;;;;;;;5.50;3.20;;;;;;;23.83;25.45;99812.41;10223968;28;20055;-61
2022/04/12 10:18:33;;;;;;;4.35;3.08;;;;;;;24.83;23.23;99805.19;10222951;28;20054;-62
2022/04/12 10:23:35;;;;;;;4.18;2.90;;;;;;;29.17;18.59;99806.22;10220852;28;20566;-61
2022/04/12 10:28:38;;;;;;;3.75;3.17;;;;;;;31.89;15.66;99808.84;10212352;28;20051;-60
2022/04/12 10:33:39;;;;;;;4.20;2.47;;;;;;;31.41;16.48;99799.97;10211801;28;20058;-62
2022/04/12 10:38:43;;;;;;;4.10;2.83;;;;;;;28.96;18.57;99785.16;10213745;28;20062;-63
2022/04/12 10:43:44;;;;;;;4.10;2.15;;;;;;;27.71;19.40;99789.94;10213237;28;20055;-61
2022/04/12 10:48:57;;;;;;;3.00;2.17;;;;;;;29.89;17.35;99776.78;10213739;28;20114;-61
2022/04/12 10:53:59;;;;;;;4.75;2.20;;;;;;;34.83;12.94;99766.34;10226074;28;20066;-61
2022/04/12 10:59:00;;;;;;;3.83;2.42;;;;;;;37.02;12.06;99742.50;10210532;28;20680;-61
2022/04/12 11:04:04;;;;;;;1.70;1.60;;;;;;;38.85;10.50;99730.72;10212962;28;20054;-62
2022/04/12 11:09:06;;;;;;;2.80;1.83;;;;;;;39.70;9.63;99732.97;10212097;28;20181;-65
2022/04/12 11:14:24;;;;;;;2.45;1.13;;;;;;;40.81;8.49;99719.97;10216347;28;20093;-61
2022/04/12 11:19:26;;;;;;;2.20;0.93;;;;;;;40.39;8.50;99717.13;10213407;28;20058;-62
2022/04/12 11:24:32;;;;;;;1.75;0.80;;;;;;;39.71;8.58;99715.13;10213487;28;20046;-62
2022/04/12 11:29:33;;;;;;;1.20;0.80;;;;;;;40.27;8.10;99715.06;10210150;28;21011;-62
2022/04/12 11:34:37;;;;;;;3.22;0.75;;;;;;;41.33;7.53;99713.16;10212495;28;20055;-62
2022/04/12 11:39:42;;;;;;;1.50;0.82;;;;;;;41.57;7.35;99716.34;10214710;28;20059;-62
2022/04/12 11:44:52;;;;;;;2.85;0.80;;;;;;;40.43;7.96;99711.66;10214646;28;20707;-62
2022/04/12 11:49:54;;;;;;;1.90;0.57;;;;;;;40.15;8.27;99689.03;10213860;28;20057;-62
2022/04/12 11:55:00;;;;;;;2.30;0.60;;;;;;;40.53;8.49;99685.41;10215237;28;20043;-62
2022/04/12 12:00:02;;;;;;;1.95;0.60;;;;;;;41.55;8.07;99685.19;10209477;28;20139;-65
2022/04/12 12:05:09;;;;;;;1.13;0.57;;;;;;;41.14;8.59;99705.25;10200814;28;20055;-63
2022/04/12 12:10:13;;;;;;;1.85;0.68;;;;;;;40.10;8.60;99699.25;10207622;28;20055;-61
2022/04/12 12:15:28;;;;;;;1.95;0.68;;;;;;;38.54;9.57;99684.38;10209658;28;20286;-62
2022/04/12 12:20:31;;;;;;;1.10;0.65;;;;;;;35.82;11.39;99692.63;10212647;28;20055;-62
2022/04/12 12:25:53;;;;;;;1.80;0.80;;;;;;;33.01;13.60;99691.09;10215915;28;20697;-62
2022/04/12 12:31:00;;;;;;;2.25;0.60;;;;;;;31.26;15.33;99679.84;10209507;28;20088;-62
2022/04/12 12:36:22;;;;;;;2.15;0.70;;;;;;;30.32;16.16;99678.75;10210118;28;20051;-61
2022/04/12 12:41:32;;;;;;;3.50;0.65;;;;;;;29.34;16.82;99673.78;10216147;28;20074;-60
2022/04/12 12:46:34;;;;;;;2.92;0.73;;;;;;;29.06;17.52;99668.28;10216036;28;20051;-62
2022/04/12 12:51:37;;;;;;;2.65;0.90;;;;;;;29.11;17.61;99675.75;10209265;28;20066;-63
2022/04/12 12:56:39;;;;;;;2.95;1.02;;;;;;;28.92;18.09;99670.63;10217852;28;20576;-61
2022/04/12 13:01:51;;;;;;;1.90;1.02;;;;;;;28.12;18.75;99659.31;10217778;28;20058;-60
2022/04/12 13:07:00;;;;;;;1.40;1.23;;;;;;;28.42;19.01;99674.47;10215704;28;20612;-60
2022/04/12 13:12:01;;;;;;;1.65;0.82;;;;;;;28.74;18.47;99657.31;10219666;28;20050;-62
2022/04/12 13:17:04;;;;;;;2.35;0.73;;;;;;;28.73;18.87;99658.38;10216445;28;20061;-61
2022/04/12 13:22:05;;;;;;;3.13;1.92;;;;;;;28.79;18.56;99662.00;10213546;28;20069;-61
2022/04/12 13:27:07;;;;;;;3.60;1.10;;;;;;;28.82;18.82;99651.34;10217448;28;20066;-61
2022/04/12 13:32:08;;;;;;;3.65;0.98;;;;;;;28.62;19.24;99645.69;10216474;28;20050;-61
2022/04/12 13:37:10;;;;;;;3.38;1.15;;;;;;;28.47;19.76;99652.59;10217330;28;20158;-61
2022/04/12 13:42:13;;;;;;;2.72;0.82;;;;;;;28.01;20.31;99647.41;10220966;28;20182;-60
2022/04/12 13:47:14;;;;;;;2.20;0.95;;;;;;;27.79;20.42;99641.88;10217478;28;20212;-60
2022/04/12 13:52:16;;;;;;;2.97;0.90;;;;;;;27.07;20.92;99648.97;10213725;28;20053;-61
2022/04/12 13:57:18;;;;;;;3.73;1.10;;;;;;;26.62;22.32;99641.56;10215053;28;20063;-61
2022/04/12 14:02:20;;;;;;;3.78;1.10;;;;;;;26.33;22.72;99611.53;10215795;28;20051;-60
2022/04/12 14:07:22;;;;;;;1.90;1.03;;;;;;;26.17;22.57;99634.16;10212244;28;20632;-61
2022/04/12 14:12:24;;;;;;;;;;;;;;;25.79;23.66;99638.22;10214599;28;20465;-59
2022/04/12 14:17:25;;;;;;;1.90;1.10;;;;;;;25.83;23.91;99637.50;10214267;28;20765;-60
2022/04/12 14:22:27;;;;;;;3.53;1.45;;;;;;;25.93;23.80;99640.44;10213449;28;20062;-60
2022/04/12 14:27:28;;;;;;;3.13;1.15;;;;;;;25.49;24.37;99620.09;10213827;28;20418;-60
2022/04/12 14:32:29;;;;;;;1.90;0.90;;;;;;;25.39;24.64;99621.53;10222627;28;20050;-61
2022/04/12 14:37:31;;;;;;;4.30;1.20;;;;;;;25.08;25.48;99621.81;10227306;28;20055;-62
2022/04/12 14:42:32;;;;;;;2.20;1.05;;;;;;;24.86;25.48;99619.63;10227457;28;20223;-62
2022/04/12 14:47:34;;;;;;;2.63;1.15;;;;;;;24.49;25.83;99615.13;10222334;28;20065;-61
2022/04/12 14:52:35;;;;;;;2.42;1.05;;;;;;;24.17;26.62;99615.34;10219301;28;20073;-65
2022/04/12 14:57:37;;;;;;;1.70;1.05;;;;;;;24.26;26.41;99610.44;10216123;28;20904;-61
2022/04/12 15:02:39;;;;;;;3.00;1.42;;;;;;;23.99;26.85;99616.19;10216890;28;20058;-62
2022/04/12 15:07:40;;;;;;;2.42;0.80;;;;;;;23.98;27.08;99611.78;10215363;28;20630;-62
2022/04/12 15:12:41;;;;;;;2.33;0.93;;;;;;;23.99;27.16;99599.88;10218562;28;20195;-61
2022/04/12 15:17:43;;;;;;;2.45;1.33;;;;;;;23.91;27.54;99613.75;10216277;28;20137;-61
2022/04/12 15:22:44;;;;;;;1.48;1.30;;;;;;;23.77;27.94;99614.94;10211871;28;20057;-62
2022/04/12 15:27:46;;;;;;;1.52;1.00;;;;;;;23.65;27.70;99604.81;10218052;28;20061;-61
2022/04/12 15:32:47;;;;;;;3.00;2.25;;;;;;;23.39;27.91;99599.66;10213875;28;20081;-62
2022/04/12 15:37:49;;;;;;;2.22;1.33;;;;;;;23.22;28.21;99583.94;10215962;28;20218;-62
2022/04/12 15:42:51;;;;;;;1.92;1.40;;;;;;;23.23;28.05;99596.47;10214566;28;20448;-62
2022/04/12 15:47:52;;;;;;;3.08;1.80;;;;;;;23.10;28.62;99586.56;10214335;28;20063;-63
2022/04/12 15:52:54;;;;;;;2.65;1.83;;;;;;;23.20;28.67;99596.91;10211237;28;20055;-62
2022/04/12 15:58:07;;;;;;;3.40;1.27;;;;;;;23.02;28.89;99588.69;10210997;28;20055;-62
2022/04/12 16:03:08;;;;;;;3.15;1.40;;;;;;;22.92;28.80;99595.44;10211616;28;20090;-63
2022/04/12 16:08:10;;;;;;;2.13;1.40;;;;;;;22.70;28.93;99586.84;10209774;28;20054;-61
2022/04/12 16:13:11;;;;;;;2.13;1.30;;;;;;;22.63;29.12;99591.47;10217097;28;20058;-62
2022/04/12 16:18:13;;;;;;;2.45;1.30;;;;;;;22.50;29.38;99597.78;10215497;28;20055;-62
2022/04/12 16:23:14;;;;;;;3.83;1.52;;;;;;;22.47;29.53;99592.81;10214731;28;20115;-62
2022/04/12 16:28:16;;;;;;;3.42;1.50;;;;;;;22.23;29.65;99597.06;10214653;28;20059;-61
2022/04/12 16:33:17;;;;;;;1.92;1.20;;;;;;;22.14;29.88;99603.78;10213223;28;20157;-62
2022/04/12 16:38:19;;;;;;;2.55;1.38;;;;;;;21.95;30.00;99590.13;10216625;28;20057;-62
2022/04/12 16:43:20;;;;;;;2.03;1.50;;;;;;;21.81;30.24;99605.59;10218073;28;20291;-63
2022/04/12 16:48:21;;;;;;;2.88;1.60;;;;;;;21.82;30.58;99606.41;10211414;28;20055;-62
2022/04/12 16:53:23;;;;;;;4.50;1.58;;;;;;;21.74;30.63;99599.34;10212695;28;21592;-61
2022/04/12 16:58:30;;;;;;;4.10;1.70;;;;;;;21.62;30.79;99615.44;10216765;28;20525;-62
2022/04/12 17:03:32;;;;;;;3.63;1.65;;;;;;;21.53;31.09;99606.69;10218163;28;20049;-62
2022/04/12 17:08:33;;;;;;;2.05;1.42;;;;;;;21.53;31.29;99620.22;10220267;28;20059;-62
2022/04/12 17:13:34;;;;;;;3.83;1.80;;;;;;;21.33;31.35;99619.38;10217194;28;20058;-61
2022/04/12 17:18:36;;;;;;;4.15;1.48;;;;;;;21.14;31.61;99610.25;10210563;28;20093;-62
2022/04/12 17:23:38;;;;;;;2.55;1.50;;;;;;;21.01;32.25;99613.78;10220184;28;20138;-62
2022/04/12 17:28:39;;;;;;;2.55;1.48;;;;;;;20.92;32.33;99615.03;10216021;28;20694;-62
2022/04/12 17:33:41;;;;;;;2.38;1.20;;;;;;;20.85;32.40;99628.50;10215877;28;20065;-61
2022/04/12 17:38:42;;;;;;;2.45;1.65;;;;;;;20.72;32.58;99618.53;10220135;28;20053;-62
2022/04/12 17:43:44;;;;;;;4.45;1.65;;;;;;;20.70;32.96;99623.28;10229692;28;20051;-62
2022/04/12 17:48:45;;;;;;;2.28;1.55;;;;;;;20.60;33.13;99625.56;10225469;28;20054;-64
2022/04/12 17:53:49;;;;;;;2.47;1.45;;;;;;;20.50;32.92;99631.34;10224799;28;20596;-63
2022/04/12 17:58:51;;;;;;;2.35;1.40;;;;;;;20.37;33.62;99628.59;10219054;28;20047;-64
2022/04/12 18:03:52;;;;;;;2.50;1.35;;;;;;;20.34;34.07;99637.09;10221948;28;20059;-64
2022/04/12 18:08:54;;;;;;;3.88;1.50;;;;;;;20.20;34.25;99628.13;10210571;28;20051;-64
2022/04/12 18:13:55;;;;;;;2.88;1.30;;;;;;;20.16;34.64;99643.06;10218949;28;20416;-63
2022/04/12 18:18:56;;;;;;;2.28;1.40;;;;;;;19.99;34.75;99640.69;10236582;28;20066;-61
2022/04/12 18:23:58;;;;;;;5.50;1.73;;;;;;;19.86;35.12;99636.06;10213539;28;20046;-63
2022/04/12 18:28:59;;;;;;;2.35;1.77;;;;;;;19.74;35.10;99653.81;10211943;28;20640;-64
2022/04/12 18:34:01;;;;;;;3.30;1.63;;;;;;;19.68;35.42;99655.44;10218315;28;20745;-64
2022/04/12 18:39:02;;;;;;;2.58;1.20;;;;;;;19.63;35.77;99667.88;10216817;28;20057;-64
2022/04/12 18:44:04;;;;;;;3.88;1.60;;;;;;;19.54;35.89;99672.56;10218871;28;20487;-65
2022/04/12 18:49:06;;;;;;;4.55;2.00;;;;;;;19.52;35.90;99688.16;10217326;28;20142;-63
2022/04/12 18:54:07;;;;;;;3.25;1.80;;;;;;;19.41;36.25;99684.94;10214724;28;20054;-63
2022/04/12 18:59:09;;;;;;;3.80;2.42;;;;;;;19.35;36.16;99696.53;10214034;28;20050;-62
2022/04/12 19:04:10;;;;;;;4.10;1.40;;;;;;;19.32;36.60;99696.06;10212440;28;20059;-63
2022/04/12 19:09:12;;;;;;;2.53;1.77;;;;;;;19.24;36.51;99710.53;10214213;28;20055;-63
2022/04/12 19:14:13;;;;;;;4.43;1.52;;;;;;;19.22;36.42;99710.72;10213766;28;20050;-63
2022/04/12 19:19:15;;;;;;;2.55;1.77;;;;;;;19.08;36.85;99709.75;10213228;28;20057;-63
2022/04/12 19:24:17;;;;;;;2.15;1.40;;;;;;;19.00;36.69;99712.56;10208936;28;20219;-63
2022/04/12 19:29:43;;;;;;;4.75;1.42;;;;;;;19.01;36.83;99719.63;10206637;28;20051;-64
2022/04/12 19:34:44;;;;;;;4.85;2.00;;;;;;;18.99;37.25;99720.84;10218881;28;20054;-62
2022/04/12 19:39:46;;;;;;;2.17;1.63;;;;;;;18.92;37.21;99720.78;10206418;28;20063;-63
2022/04/12 19:44:47;;;;;;;2.17;1.70;;;;;;;18.80;37.42;99714.19;10214958;28;20054;-63
2022/04/12 19:49:49;;;;;;;5.78;1.92;;;;;;;18.80;37.56;99733.06;10212750;28;20501;-63
2022/04/12 19:54:50;;;;;;;2.95;1.70;;;;;;;18.71;37.97;99735.03;10213084;28;20736;-62
2022/04/12 19:59:58;;;;;;;2.47;1.48;;;;;;;18.67;37.79;99739.13;10210037;28;20160;-63
2022/04/12 20:05:00;;;;;;;4.40;2.10;;;;;;;18.57;37.69;99739.44;10210107;28;20066;-63
2022/04/12 20:10:06;;;;;;;2.25;1.70;;;;;;;18.50;37.75;99741.22;10211319;28;20161;-62
2022/04/12 20:15:11;;;;;;;3.20;1.70;;;;;;;18.46;37.96;99737.22;10212052;28;20277;-64
2022/04/12 20:20:14;;;;;;;2.90;1.70;;;;;;;18.41;37.98;99745.03;10213115;28;20733;-62
2022/04/12 20:25:16;;;;;;;3.25;1.90;;;;;;;18.33;37.99;99746.81;10215420;28;20050;-65
2022/04/12 20:30:17;;;;;;;2.50;1.85;;;;;;;18.21;37.95;99742.91;10214619;28;20049;-62
2022/04/12 20:35:19;;;;;;;3.55;1.83;;;;;;;18.19;38.43;99750.31;10215456;28;20055;-65
2022/04/12 20:40:20;;;;;;;2.85;1.45;;;;;;;18.13;38.12;99749.19;10216282;28;20108;-65
2022/04/12 20:45:22;;;;;;;1.80;1.45;;;;;;;18.09;38.18;99747.91;10212881;28;20202;-62
2022/04/12 20:50:23;;;;;;;3.00;2.10;;;;;;;18.01;38.52;99740.75;10206840;28;20059;-63
2022/04/12 20:55:25;;;;;;;3.20;1.90;;;;;;;17.98;38.11;99749.19;10229974;28;20051;-62
2022/04/12 21:00:26;;;;;;;2.58;1.75;;;;;;;17.83;38.29;99735.69;10222876;28;20054;-65
2022/04/12 21:05:28;;;;;;;3.83;1.70;;;;;;;17.86;38.51;99745.25;10232621;28;20138;-65
2022/04/12 21:10:29;;;;;;;2.75;1.40;;;;;;;17.85;38.28;99746.28;10237048;28;20138;-64
2022/04/12 21:15:31;;;;;;;3.60;1.30;;;;;;;17.82;37.97;99747.47;10235144;28;20049;-63
2022/04/12 21:20:32;;;;;;;2.95;1.52;;;;;;;17.78;37.82;99748.03;10245995;28;20050;-63
2022/04/12 21:25:34;;;;;;;2.42;1.15;;;;;;;17.72;37.86;99751.44;10243633;28;20075;-63
2022/04/12 21:30:35;;;;;;;3.05;1.67;;;;;;;17.67;38.14;99747.44;10239330;28;20070;-63
2022/04/12 21:35:37;;;;;;;3.17;1.30;;;;;;;17.56;38.04;99742.47;10241224;28;20170;-62
2022/04/12 21:40:38;;;;;;;1.63;1.40;;;;;;;17.56;37.64;99752.41;10250951;28;20047;-63
2022/04/12 21:45:39;;;;;;;2.10;0.90;;;;;;;17.48;37.36;99746.09;10257073;28;20061;-64
2022/04/12 21:50:41;;;;;;;2.58;1.20;;;;;;;17.48;37.64;99751.47;10285912;28;20169;-64
2022/04/12 21:55:48;;;;;;;3.47;1.17;;;;;;;17.43;37.71;99753.03;10247940;28;20683;-62
2022/04/12 22:00:52;;;;;;;4.15;1.50;;;;;;;17.36;38.32;99750.22;10241984;28;20097;-63
2022/04/12 22:05:53;;;;;;;1.88;1.33;;;;;;;17.27;37.96;99749.44;10243872;28;20058;-63
2022/04/12 22:10:55;;;;;;;2.47;1.40;;;;;;;17.28;37.61;99761.88;10235027;28;20047;-63
2022/04/12 22:15:56;;;;;;;4.63;1.77;;;;;;;17.23;38.22;99769.63;10239482;28;20146;-64
2022/04/12 22:20:58;;;;;;;2.97;1.40;;;;;;;17.18;38.17;99777.41;10236254;28;20051;-63
2022/04/12 22:26:00;;;;;;;1.83;1.35;;;;;;;17.02;38.36;99756.84;10237041;28;20190;-63
2022/04/12 22:31:02;;;;;;;3.35;1.20;;;;;;;17.02;38.35;99758.69;10237090;28;20565;-63
2022/04/12 22:36:04;;;;;;;4.60;1.85;;;;;;;16.96;38.72;99763.78;10240804;28;20970;-62
2022/04/12 22:41:06;;;;;;;1.50;1.38;;;;;;;16.98;38.78;99781.56;10236920;28;20058;-63
2022/04/12 22:46:09;;;;;;;2.25;1.40;;;;;;;16.88;38.46;99787.19;10248262;28;20113;-63
2022/04/12 22:51:11;;;;;;;2.58;1.15;;;;;;;16.92;38.53;99785.81;10234820;28;20142;-64
2022/04/12 22:56:12;;;;;;;1.75;1.15;;;;;;;16.93;39.04;99791.03;10233479;28;20860;-63
2022/04/12 23:01:13;;;;;;;3.28;1.90;;;;;;;16.91;38.89;99795.72;10247269;28;20057;-63
2022/04/12 23:06:15;;;;;;;3.38;1.65;;;;;;;16.83;39.21;99784.13;10232606;28;20071;-62
2022/04/12 23:11:16;;;;;;;2.13;1.17;;;;;;;16.86;39.20;99790.00;10239606;28;20057;-62
2022/04/12 23:16:17;;;;;;;4.43;1.65;;;;;;;16.88;39.25;99803.31;10235100;28;20055;-62
2022/04/12 23:21:19;;;;;;;2.70;1.50;;;;;;;16.87;39.23;99793.56;10234508;28;20066;-62
2022/04/12 23:26:21;;;;;;;1.63;1.40;;;;;;;16.81;39.43;99775.41;10245001;28;20078;-63
2022/04/12 23:31:23;;;;;;;1.60;1.40;;;;;;;16.83;38.90;99787.69;10232279;28;20114;-63
2022/04/12 23:36:24;;;;;;;1.77;1.08;;;;;;;16.79;38.60;99783.66;10230479;28;20088;-63